< < Back
Terminal Aerodrome Forecast


Current Version              Previous Versions:   1  2  3  4  5  6  7  8  9  

Terminal Aerodrome Forecast

630
FTUS42 KTAE 260200 AAA
TAFTLH
TAF AMD
KTLH 260243Z 2603/2624 34009KT 5SM -RA BR SCT007 BKN016 OVC030
     FM261000 34012KT P6SM VCSH OVC030
     FM261400 32009KT P6SM SCT250=



Latest METAR

870
SAUS80 KWBC 261300
MTRTLH
METAR KTLH 261253Z COR 30006KT 10SM SCT080 09/06 A3012 RMK AO2 SLP198
T00890061


USA.gov is the U.S. government's official web portal to all federal, state and local government web resources and services.